Time;durP1;ratioP1;P1;durP2;ratioP2;P2;SDS_P1;SDS_P2;PMS_P1;PMS_P2;Temp;Humidity;BMP_temperature;BMP_pressure;BME280_temperature;BME280_humidity;BME280_pressure;Samples;Min_cycle;Max_cycle;Signal;HPM_P1;HPM_P2
2022/05/29 00:00:28;;;;;;;5.03;2.77;;;12.20;99.90;;;;;;5094986;28;20215;-60
2022/05/29 00:02:54;;;;;;;3.73;2.23;;;12.20;99.90;;;;;;5095060;28;20210;-59
2022/05/29 00:05:21;;;;;;;4.87;2.60;;;12.20;99.90;;;;;;5094982;28;20210;-59
2022/05/29 00:07:50;;;;;;;3.93;2.70;;;12.30;99.90;;;;;;5095453;28;20204;-62
2022/05/29 00:10:18;;;;;;;3.60;2.30;;;12.30;99.90;;;;;;5095197;28;20212;-59
2022/05/29 00:12:45;;;;;;;3.07;2.17;;;12.30;99.90;;;;;;5094969;28;20200;-59
2022/05/29 00:15:13;;;;;;;2.57;2.17;;;12.40;99.90;;;;;;5095124;28;20220;-59
2022/05/29 00:17:40;;;;;;;2.57;2.10;;;12.40;99.90;;;;;;5094644;28;20224;-59
2022/05/29 00:20:08;;;;;;;3.30;2.50;;;12.40;99.90;;;;;;5094922;28;20565;-60
2022/05/29 00:22:35;;;;;;;2.90;2.20;;;12.40;99.90;;;;;;5094574;28;20208;-60
2022/05/29 00:25:05;;;;;;;3.53;2.37;;;12.50;99.90;;;;;;5094973;28;20568;-62
2022/05/29 00:27:32;;;;;;;5.47;2.17;;;12.50;99.90;;;;;;5095031;28;20650;-60
2022/05/29 00:29:59;;;;;;;3.73;2.40;;;12.50;99.90;;;;;;5094452;28;20243;-60
2022/05/29 00:32:27;;;;;;;3.47;2.30;;;12.50;99.90;;;;;;5094582;28;20207;-59
2022/05/29 00:34:54;;;;;;;3.90;2.10;;;12.60;99.90;;;;;;5094732;28;20228;-59
2022/05/29 00:37:21;;;;;;;4.03;2.00;;;12.60;99.90;;;;;;5094543;28;20215;-61
2022/05/29 00:39:51;;;;;;;4.17;2.33;;;12.60;99.90;;;;;;5094853;28;20215;-59
2022/05/29 00:42:21;;;;;;;2.60;2.03;;;12.60;99.90;;;;;;5094607;28;20199;-60
2022/05/29 00:44:49;;;;;;;4.00;2.20;;;12.60;99.90;;;;;;5094228;28;20190;-59
2022/05/29 00:47:18;;;;;;;4.93;2.37;;;12.60;99.90;;;;;;5093947;28;20204;-60
2022/05/29 00:49:50;;;;;;;4.97;2.30;;;12.70;99.90;;;;;;5094127;28;20204;-59
2022/05/29 00:52:21;;;;;;;3.13;2.20;;;12.70;99.90;;;;;;5094567;28;20255;-60
2022/05/29 00:54:53;;;;;;;3.13;2.13;;;12.70;99.90;;;;;;5094482;28;20207;-60
2022/05/29 00:57:25;;;;;;;3.50;2.20;;;12.70;99.90;;;;;;5094545;28;20287;-58
2022/05/29 00:59:53;;;;;;;2.87;2.07;;;12.70;99.90;;;;;;5094078;28;20188;-59
2022/05/29 01:02:19;;;;;;;2.97;2.03;;;12.70;99.90;;;;;;5094122;28;20265;-59
2022/05/29 01:04:48;;;;;;;3.73;2.47;;;12.70;99.90;;;;;;5093900;28;20200;-60
2022/05/29 01:07:16;;;;;;;3.57;2.07;;;12.70;99.90;;;;;;5093984;28;20207;-59
2022/05/29 01:09:47;;;;;;;3.83;2.40;;;12.70;99.90;;;;;;5094081;28;20211;-60
2022/05/29 01:12:25;;;;;;;3.60;2.20;;;12.80;99.90;;;;;;5094320;28;20192;-60
2022/05/29 01:15:11;;;;;;;2.23;1.70;;;12.80;99.90;;;;;;5093974;28;20215;-59
2022/05/29 01:17:44;;;;;;;4.43;2.00;;;12.80;99.90;;;;;;5093806;28;20561;-60
2022/05/29 01:20:37;;;;;;;3.43;1.93;;;12.80;99.90;;;;;;5094197;28;20581;-60
2022/05/29 01:23:30;;;;;;;3.83;2.13;;;12.70;99.90;;;;;;5093913;28;20204;-60
2022/05/29 01:26:28;;;;;;;2.40;2.00;;;12.80;99.90;;;;;;5093615;28;20203;-59
2022/05/29 01:28:59;;;;;;;2.93;2.30;;;12.80;99.90;;;;;;5093651;28;20286;-60
2022/05/29 01:31:42;;;;;;;2.67;1.90;;;12.80;99.90;;;;;;5093766;28;20193;-59
2022/05/29 01:34:24;;;;;;;2.10;1.90;;;12.80;99.90;;;;;;5093849;28;20192;-60
2022/05/29 01:37:00;;;;;;;3.20;1.90;;;12.80;99.90;;;;;;5093739;28;20198;-60
2022/05/29 01:39:33;;;;;;;3.37;2.13;;;12.80;99.90;;;;;;5093306;28;20199;-59
2022/05/29 01:42:07;;;;;;;2.87;2.10;;;12.80;99.90;;;;;;5093748;28;20623;-60
2022/05/29 01:44:40;;;;;;;1.93;1.73;;;12.80;99.90;;;;;;5093559;28;20246;-58
2022/05/29 01:47:15;;;;;;;3.73;1.97;;;12.90;99.90;;;;;;5093517;28;20546;-60
2022/05/29 01:49:47;;;;;;;3.10;1.90;;;12.90;99.90;;;;;;5093420;28;20629;-60
2022/05/29 01:52:17;;;;;;;3.50;2.23;;;12.90;99.90;;;;;;5093438;28;20192;-59
2022/05/29 01:54:48;;;;;;;6.10;4.00;;;12.90;99.90;;;;;;5093231;28;20219;-59
2022/05/29 01:57:18;;;;;;;5.17;2.47;;;13.00;99.90;;;;;;5093320;28;20192;-60
2022/05/29 01:59:50;;;;;;;2.33;1.97;;;13.00;99.90;;;;;;5091953;28;20258;-58
2022/05/29 02:02:23;;;;;;;28.73;18.63;;;13.00;99.90;;;;;;5093307;28;20192;-59
2022/05/29 02:04:54;;;;;;;9.97;5.13;;;13.00;99.90;;;;;;5092897;28;20192;-60
2022/05/29 02:10:13;;;;;;;5.30;2.60;;;12.90;99.90;;;;;;5092921;28;20190;-59
2022/05/29 02:12:43;;;;;;;3.43;2.20;;;12.90;99.90;;;;;;5092873;28;20198;-59
2022/05/29 02:15:16;;;;;;;3.37;2.00;;;12.90;99.90;;;;;;5092885;28;20583;-60
2022/05/29 02:17:47;;;;;;;2.13;1.87;;;12.90;99.90;;;;;;5092518;28;20188;-60
2022/05/29 02:20:18;;;;;;;2.60;1.80;;;12.90;99.90;;;;;;5093137;28;20188;-59
2022/05/29 02:22:46;;;;;;;3.03;1.73;;;12.80;99.90;;;;;;5092727;28;20205;-59
2022/05/29 02:25:20;;;;;;;2.77;1.80;;;12.80;99.90;;;;;;5092464;28;20200;-59
2022/05/29 02:27:53;;;;;;;3.37;1.90;;;12.80;99.90;;;;;;5092699;28;20555;-60
2022/05/29 02:30:24;;;;;;;2.80;1.80;;;12.80;99.90;;;;;;5092449;28;20540;-59
2022/05/29 02:33:00;;;;;;;2.50;1.70;;;12.70;99.90;;;;;;5092318;28;20191;-60
2022/05/29 02:35:34;;;;;;;4.77;1.93;;;12.70;99.90;;;;;;5092067;28;20208;-59
2022/05/29 02:38:07;;;;;;;4.67;2.10;;;12.70;99.90;;;;;;5092195;28;20648;-60
2022/05/29 02:40:45;;;;;;;3.63;1.80;;;12.70;99.90;;;;;;5092336;28;20211;-60
2022/05/29 02:43:21;;;;;;;3.10;1.80;;;12.60;99.90;;;;;;5092105;28;20191;-59
2022/05/29 02:45:54;;;;;;;2.90;2.10;;;12.60;99.90;;;;;;5092278;28;20195;-59
2022/05/29 02:48:27;;;;;;;2.73;2.00;;;12.60;99.90;;;;;;5092192;28;20188;-59
2022/05/29 02:51:03;;;;;;;2.53;1.83;;;12.60;99.90;;;;;;5092441;28;20546;-60
2022/05/29 02:53:33;;;;;;;2.63;1.83;;;12.60;99.90;;;;;;5092057;28;20192;-61
2022/05/29 02:56:00;;;;;;;2.63;2.00;;;12.60;99.90;;;;;;5092116;28;20723;-61
2022/05/29 02:58:30;;;;;;;3.67;1.70;;;12.60;99.90;;;;;;5091729;28;20219;-60
2022/05/29 03:01:16;;;;;;;2.70;1.80;;;12.50;99.90;;;;;;5091854;28;20189;-60
2022/05/29 03:03:55;;;;;;;2.10;1.80;;;12.50;99.90;;;;;;5092137;28;20253;-60
2022/05/29 03:06:32;;;;;;;2.40;1.73;;;12.50;99.90;;;;;;5091909;28;20215;-60
2022/05/29 03:09:10;;;;;;;1.97;1.77;;;12.40;99.90;;;;;;5091453;28;20198;-60
2022/05/29 03:11:40;;;;;;;2.23;1.90;;;12.40;99.90;;;;;;5092007;28;20199;-61
2022/05/29 03:14:15;;;;;;;2.23;1.43;;;12.40;99.90;;;;;;5092279;28;20235;-59
2022/05/29 03:16:57;;;;;;;2.67;1.70;;;12.40;99.90;;;;;;5091937;28;20227;-59
2022/05/29 03:19:35;;;;;;;3.00;2.00;;;12.40;99.90;;;;;;5091597;28;20266;-59
2022/05/29 03:22:12;;;;;;;2.37;1.80;;;12.40;99.90;;;;;;5091743;28;20192;-60
2022/05/29 03:24:46;;;;;;;3.30;1.80;;;12.50;99.90;;;;;;5091979;28;20184;-59
2022/05/29 03:27:18;;;;;;;6.97;1.90;;;12.40;99.90;;;;;;5092056;28;20219;-60
2022/05/29 03:29:48;;;;;;;4.63;2.00;;;12.40;99.90;;;;;;5091509;28;20239;-59
2022/05/29 03:32:19;;;;;;;3.30;1.77;;;12.40;99.90;;;;;;5091875;28;20592;-61
2022/05/29 03:34:46;;;;;;;4.83;2.10;;;12.40;99.90;;;;;;5091834;28;20193;-60
2022/05/29 03:37:13;;;;;;;4.07;2.20;;;12.40;99.90;;;;;;5091471;28;20200;-58
2022/05/29 03:39:41;;;;;;;3.07;1.60;;;12.50;99.90;;;;;;5091419;28;20210;-59
2022/05/29 03:42:08;;;;;;;2.10;1.90;;;12.40;99.90;;;;;;5091686;28;20200;-60
2022/05/29 03:44:35;;;;;;;3.17;1.60;;;12.40;99.90;;;;;;5091919;28;20203;-59
2022/05/29 03:47:01;;;;;;;2.60;1.80;;;12.40;99.90;;;;;;5091505;28;20223;-59
2022/05/29 03:49:30;;;;;;;4.23;1.93;;;12.50;99.90;;;;;;5091597;28;20315;-59
2022/05/29 03:51:57;;;;;;;4.00;1.97;;;12.40;99.90;;;;;;5091447;28;20606;-60
2022/05/29 03:54:24;;;;;;;2.37;1.70;;;12.50;99.90;;;;;;5091537;28;20657;-60
2022/05/29 03:56:51;;;;;;;5.30;1.87;;;12.50;99.90;;;;;;5091626;28;20586;-60
2022/05/29 03:59:18;;;;;;;2.33;1.97;;;12.60;99.90;;;;;;5091514;28;20212;-59
2022/05/29 04:01:44;;;;;;;3.53;2.07;;;12.60;99.90;;;;;;5091600;28;20554;-60
2022/05/29 04:04:11;;;;;;;3.47;1.90;;;12.70;99.90;;;;;;5091353;28;20580;-59
2022/05/29 04:06:40;;;;;;;4.50;2.10;;;12.70;99.90;;;;;;5091230;28;20546;-61
2022/05/29 04:12:05;;;;;;;4.80;2.30;;;12.90;99.90;;;;;;5091316;28;20316;-61
2022/05/29 04:14:31;;;;;;;4.13;2.17;;;12.90;99.90;;;;;;5091585;28;20195;-62
2022/05/29 04:16:58;;;;;;;2.60;1.97;;;13.00;99.90;;;;;;5091326;28;20254;-60
2022/05/29 04:19:25;;;;;;;3.07;2.07;;;13.00;99.90;;;;;;5091170;28;20200;-60
2022/05/29 04:21:53;;;;;;;4.63;2.37;;;13.10;99.90;;;;;;5092549;28;20559;-59
2022/05/29 04:24:20;;;;;;;3.20;2.23;;;13.10;99.90;;;;;;5095092;28;20211;-59
2022/05/29 04:26:48;;;;;;;6.87;2.70;;;13.10;99.90;;;;;;5094677;28;20212;-60
2022/05/29 04:29:15;;;;;;;6.87;2.80;;;13.10;99.90;;;;;;5094344;28;20232;-60
2022/05/29 04:32:59;;;;;;;5.83;2.70;;;13.10;99.90;;;;;;5094969;28;20200;-61
2022/05/29 04:34:30;;;;;;;4.07;2.00;;;13.10;99.90;;;;;;5094425;28;20292;-60
2022/05/29 04:36:58;;;;;;;2.10;1.90;;;13.10;99.90;;;;;;5094430;28;20224;-59
2022/05/29 04:39:26;;;;;;;2.63;1.70;;;13.20;99.90;;;;;;5094639;28;20214;-59
2022/05/29 04:41:53;;;;;;;4.10;1.80;;;13.30;99.90;;;;;;5094727;28;20211;-60
2022/05/29 04:44:20;;;;;;;2.63;1.77;;;13.30;99.90;;;;;;5094125;28;20214;-60
2022/05/29 04:46:46;;;;;;;2.87;1.80;;;13.30;99.90;;;;;;5094257;28;20208;-60
2022/05/29 04:49:13;;;;;;;2.23;1.60;;;13.30;99.90;;;;;;5093975;28;20219;-60
2022/05/29 04:51:40;;;;;;;2.83;1.70;;;13.30;99.90;;;;;;5094152;28;20657;-58
2022/05/29 04:54:08;;;;;;;3.57;1.60;;;13.40;99.90;;;;;;5094195;28;20696;-59
2022/05/29 04:56:35;;;;;;;2.27;1.60;;;13.40;99.90;;;;;;5094448;28;20220;-63
2022/05/29 04:59:02;;;;;;;2.40;1.53;;;13.40;99.90;;;;;;5093884;28;20236;-61
2022/05/29 05:01:29;;;;;;;2.90;1.63;;;13.50;99.90;;;;;;5094177;28;20693;-61
2022/05/29 05:03:56;;;;;;;5.40;2.00;;;13.40;99.90;;;;;;5094047;28;20382;-60
2022/05/29 05:06:23;;;;;;;2.47;1.77;;;13.50;99.90;;;;;;5094494;28;20662;-64
2022/05/29 05:08:49;;;;;;;3.17;1.87;;;13.50;99.90;;;;;;5094060;28;20673;-61
2022/05/29 05:11:18;;;;;;;3.63;1.70;;;13.60;99.90;;;;;;5094112;28;20210;-61
2022/05/29 05:13:44;;;;;;;4.13;1.83;;;13.70;99.90;;;;;;5093947;28;20208;-60
2022/05/29 05:16:11;;;;;;;3.10;1.67;;;13.70;99.90;;;;;;5093698;28;20543;-59
2022/05/29 05:18:38;;;;;;;2.30;1.70;;;13.70;99.90;;;;;;5093750;28;20215;-60
2022/05/29 05:21:06;;;;;;;1.73;1.50;;;13.80;99.90;;;;;;5093742;28;20645;-60
2022/05/29 05:23:34;;;;;;;2.03;1.80;;;13.90;99.90;;;;;;5093549;28;20203;-60
2022/05/29 05:26:01;;;;;;;3.63;1.80;;;13.90;99.90;;;;;;5093422;28;20575;-60
2022/05/29 05:28:29;;;;;;;4.17;2.00;;;14.10;99.90;;;;;;5093594;28;20235;-61
2022/05/29 05:30:56;;;;;;;6.43;2.20;;;14.10;99.90;;;;;;5093980;28;20204;-60
2022/05/29 05:33:23;;;;;;;5.17;1.93;;;14.10;99.90;;;;;;5093206;28;20208;-61
2022/05/29 05:35:49;;;;;;;3.97;2.17;;;14.20;99.90;;;;;;5093698;28;20228;-62
2022/05/29 05:38:16;;;;;;;2.97;1.90;;;14.30;99.90;;;;;;5093600;28;20208;-60
2022/05/29 05:40:43;;;;;;;2.17;1.80;;;14.40;99.90;;;;;;5093622;28;20537;-61
2022/05/29 05:43:10;;;;;;;3.93;1.80;;;14.40;99.90;;;;;;5093231;28;20678;-59
2022/05/29 05:45:41;;;;;;;2.00;1.60;;;14.50;99.90;;;;;;5093381;28;20206;-60
2022/05/29 05:48:08;;;;;;;5.40;2.17;;;14.60;99.90;;;;;;5093320;28;20200;-61
2022/05/29 05:50:36;;;;;;;4.10;1.90;;;14.60;99.90;;;;;;5093459;28;20207;-61
2022/05/29 05:53:03;;;;;;;1.90;1.53;;;14.60;99.90;;;;;;5093211;28;20677;-61
2022/05/29 05:55:30;;;;;;;3.50;1.60;;;14.70;99.90;;;;;;5093124;28;20239;-62
2022/05/29 05:57:57;;;;;;;3.00;1.70;;;14.70;99.90;;;;;;5092911;28;20207;-60
2022/05/29 06:00:24;;;;;;;4.27;1.97;;;14.80;99.90;;;;;;5092876;28;20208;-61
2022/05/29 06:02:52;;;;;;;3.43;1.70;;;14.80;99.90;;;;;;5092967;28;20204;-60
2022/05/29 06:05:19;;;;;;;3.37;1.83;;;14.90;99.90;;;;;;5093057;28;20297;-62
2022/05/29 06:07:46;;;;;;;3.90;1.63;;;15.00;99.90;;;;;;5093103;28;20210;-61
2022/05/29 06:10:13;;;;;;;2.77;1.67;;;15.10;99.90;;;;;;5093283;28;20204;-61
2022/05/29 06:12:40;;;;;;;3.10;1.80;;;15.10;99.90;;;;;;5093011;28;20204;-62
2022/05/29 06:15:08;;;;;;;4.83;1.70;;;15.20;99.90;;;;;;5092575;28;20228;-60
2022/05/29 06:17:35;;;;;;;4.43;2.00;;;15.20;99.90;;;;;;5092652;28;20373;-61
2022/05/29 06:20:06;;;;;;;4.43;2.00;;;15.30;99.90;;;;;;5092711;28;20227;-60
2022/05/29 06:22:36;;;;;;;3.80;1.77;;;15.40;99.90;;;;;;5092711;28;20189;-59
2022/05/29 06:25:03;;;;;;;2.90;1.87;;;15.50;99.90;;;;;;5092654;28;20601;-61
2022/05/29 06:27:30;;;;;;;2.93;1.57;;;15.50;99.90;;;;;;5092428;28;20207;-60
2022/05/29 06:29:57;;;;;;;4.53;1.50;;;15.40;99.90;;;;;;5092081;28;20236;-60
2022/05/29 06:32:24;;;;;;;1.80;1.43;;;15.40;99.90;;;;;;5092681;28;20546;-60
2022/05/29 06:34:50;;;;;;;2.20;1.57;;;15.40;99.90;;;;;;5092412;28;20200;-64
2022/05/29 06:37:18;;;;;;;4.00;1.70;;;15.50;99.90;;;;;;5092440;28;20262;-62
2022/05/29 06:39:45;;;;;;;2.17;1.50;;;15.60;99.90;;;;;;5092227;28;20200;-60
2022/05/29 06:42:13;;;;;;;3.97;1.40;;;15.60;99.90;;;;;;5092177;28;20302;-62
2022/05/29 06:44:40;;;;;;;2.23;1.50;;;15.60;99.90;;;;;;5091489;28;20632;-60
2022/05/29 06:47:09;;;;;;;1.77;1.37;;;15.60;99.90;;;;;;5092436;28;20302;-60
2022/05/29 06:49:37;;;;;;;2.33;1.40;;;15.70;99.90;;;;;;5092353;28;20611;-61
2022/05/29 06:52:07;;;;;;;3.27;1.63;;;15.70;99.90;;;;;;5092217;28;20558;-60
2022/05/29 06:54:35;;;;;;;2.00;1.30;;;15.80;99.90;;;;;;5092202;28;20216;-61
2022/05/29 06:57:02;;;;;;;4.47;1.87;;;15.90;99.90;;;;;;5091765;28;20221;-61
2022/05/29 06:59:29;;;;;;;3.80;1.63;;;16.00;99.90;;;;;;5091665;28;20208;-62
2022/05/29 07:07:24;;;;;;;3.90;2.23;;;16.30;99.90;;;;;;5091966;28;20221;-60
2022/05/29 07:09:53;;;;;;;1.87;1.40;;;16.50;99.90;;;;;;5091824;28;20204;-59
2022/05/29 07:12:22;;;;;;;2.50;1.57;;;16.50;99.90;;;;;;5091607;28;20208;-60
2022/05/29 07:14:52;;;;;;;2.27;1.53;;;16.50;99.90;;;;;;5091696;28;20220;-61
2022/05/29 07:17:19;;;;;;;2.10;1.47;;;16.60;99.90;;;;;;5091644;28;20657;-60
2022/05/29 07:19:46;;;;;;;2.30;1.63;;;16.60;99.90;;;;;;5091414;28;20202;-60
2022/05/29 07:22:13;;;;;;;4.00;1.40;;;16.60;99.90;;;;;;5091219;28;20205;-61
2022/05/29 07:24:43;;;;;;;3.00;1.37;;;16.70;99.90;;;;;;5091011;28;20201;-62
2022/05/29 07:27:11;;;;;;;3.27;1.30;;;16.70;99.90;;;;;;5091418;28;20299;-61
2022/05/29 07:29:38;;;;;;;1.43;1.30;;;16.70;99.90;;;;;;5090982;28;20248;-61
2022/05/29 07:32:06;;;;;;;2.33;1.40;;;16.80;99.90;;;;;;5091161;28;20210;-64
2022/05/29 07:34:33;;;;;;;2.40;1.40;;;16.80;99.90;;;;;;5091570;28;20288;-60
2022/05/29 07:37:05;;;;;;;3.33;1.40;;;16.70;99.90;;;;;;5091317;28;20228;-62
2022/05/29 07:39:36;;;;;;;1.60;1.20;;;16.80;99.90;;;;;;5091531;28;20204;-62
2022/05/29 07:44:48;;;;;;;4.07;1.30;;;16.90;99.90;;;;;;5091027;28;20621;-59
2022/05/29 07:47:15;;;;;;;2.43;1.40;;;16.90;99.90;;;;;;5091502;28;20218;-61
2022/05/29 07:49:42;;;;;;;1.57;1.17;;;17.00;99.90;;;;;;5091496;28;20203;-61
2022/05/29 07:52:09;;;;;;;2.90;1.73;;;17.00;99.90;;;;;;5091583;28;20234;-60
2022/05/29 07:54:35;;;;;;;4.63;2.07;;;17.00;99.90;;;;;;5090985;28;20213;-59
2022/05/29 07:57:02;;;;;;;2.43;1.60;;;17.10;99.90;;;;;;5094931;28;20223;-62
2022/05/29 07:59:29;;;;;;;1.90;1.40;;;17.10;99.90;;;;;;5095733;28;20601;-63
2022/05/29 08:01:58;;;;;;;2.20;1.30;;;17.10;99.90;;;;;;5095055;28;20205;-63
2022/05/29 08:04:24;;;;;;;3.63;1.67;;;17.20;99.90;;;;;;5095527;28;20690;-62
2022/05/29 08:06:51;;;;;;;3.83;1.67;;;17.30;99.90;;;;;;5095468;28;20602;-61
2022/05/29 08:09:19;;;;;;;3.73;1.60;;;17.40;99.90;;;;;;5095452;28;20556;-62
2022/05/29 08:11:46;;;;;;;1.27;1.17;;;17.40;99.90;;;;;;5094946;28;20312;-60
2022/05/29 08:14:13;;;;;;;1.63;1.23;;;17.50;99.90;;;;;;5095202;28;20201;-60
2022/05/29 08:16:41;;;;;;;2.70;1.20;;;17.50;99.90;;;;;;5094557;28;20238;-61
2022/05/29 08:19:09;;;;;;;2.80;1.30;;;17.50;99.90;;;;;;5095105;28;20595;-63
2022/05/29 08:21:36;;;;;;;2.83;1.40;;;17.50;99.90;;;;;;5094875;28;20213;-61
2022/05/29 08:32:15;;;;;;;3.57;1.53;;;17.60;99.90;;;;;;5094679;28;20235;-62
2022/05/29 08:34:43;;;;;;;3.17;1.40;;;17.70;99.90;;;;;;5094502;28;20211;-61
2022/05/29 08:37:11;;;;;;;1.37;1.20;;;17.70;99.90;;;;;;5094360;28;20230;-62
2022/05/29 08:39:38;;;;;;;4.40;1.57;;;17.80;99.90;;;;;;5094361;28;20214;-62
2022/05/29 08:42:05;;;;;;;4.10;1.37;;;17.90;99.90;;;;;;5094913;28;20560;-64
2022/05/29 08:44:37;;;;;;;1.37;1.20;;;17.90;99.90;;;;;;5094552;28;20683;-60
2022/05/29 08:47:05;;;;;;;1.20;1.10;;;18.00;99.90;;;;;;5094716;28;20616;-61
2022/05/29 08:49:35;;;;;;;2.50;1.40;;;18.10;99.90;;;;;;5094642;28;20226;-61
2022/05/29 08:52:12;;;;;;;2.40;1.40;;;18.10;99.90;;;;;;5094335;28;20195;-60
2022/05/29 08:54:48;;;;;;;2.80;1.33;;;18.10;99.90;;;;;;5094440;28;20188;-60
2022/05/29 08:57:29;;;;;;;2.83;1.27;;;18.20;99.90;;;;;;5094360;28;20214;-61
2022/05/29 08:59:59;;;;;;;2.93;1.40;;;18.10;99.90;;;;;;5094739;28;20195;-61
2022/05/29 09:02:40;;;;;;;1.70;1.30;;;18.30;99.90;;;;;;5094097;28;20580;-60
2022/05/29 09:05:10;;;;;;;3.43;2.33;;;18.30;99.90;;;;;;5093923;28;20198;-61
2022/05/29 09:07:42;;;;;;;2.30;1.50;;;18.40;99.90;;;;;;5093559;28;20195;-61
2022/05/29 09:10:16;;;;;;;3.50;1.20;;;18.50;99.60;;;;;;5094151;28;20196;-60
2022/05/29 09:12:48;;;;;;;1.47;1.17;;;18.50;98.70;;;;;;5094207;28;20253;-62
2022/05/29 09:15:20;;;;;;;1.93;1.27;;;18.50;98.60;;;;;;5094101;28;20778;-60
2022/05/29 09:17:51;;;;;;;2.20;1.47;;;18.40;97.60;;;;;;5093899;28;20227;-62
2022/05/29 09:20:27;;;;;;;3.10;1.40;;;18.50;98.70;;;;;;5093997;28;20195;-62
2022/05/29 09:22:56;;;;;;;1.53;1.20;;;18.60;98.70;;;;;;5093874;28;20584;-60
2022/05/29 09:25:29;;;;;;;2.03;1.20;;;18.60;98.10;;;;;;5093577;28;20203;-62
2022/05/29 09:28:00;;;;;;;1.30;1.10;;;18.60;97.60;;;;;;5093183;28;20185;-60
2022/05/29 09:30:27;;;;;;;3.60;1.30;;;18.60;97.50;;;;;;5093282;28;20289;-60
2022/05/29 09:32:58;;;;;;;1.43;1.20;;;18.60;95.70;;;;;;5093520;28;20206;-63
2022/05/29 09:35:31;;;;;;;1.33;1.20;;;18.70;96.70;;;;;;5093361;28;20206;-60
2022/05/29 09:38:05;;;;;;;2.37;1.50;;;18.70;97.10;;;;;;5093225;28;20215;-60
2022/05/29 09:40:36;;;;;;;1.40;1.00;;;18.80;97.00;;;;;;5093323;28;20206;-61
2022/05/29 09:43:18;;;;;;;2.07;1.10;;;18.80;96.20;;;;;;5093134;28;20275;-64
2022/05/29 09:45:45;;;;;;;2.67;1.80;;;18.80;96.20;;;;;;5093878;28;20562;-64
2022/05/29 09:51:20;;;;;;;2.77;1.20;;;19.00;95.80;;;;;;5093017;28;20189;-60
2022/05/29 09:53:51;;;;;;;3.17;1.30;;;19.10;95.60;;;;;;5093240;28;20193;-61
2022/05/29 09:56:27;;;;;;;2.03;1.10;;;19.10;94.70;;;;;;5093682;28;20245;-63
2022/05/29 09:58:58;;;;;;;1.20;1.10;;;19.10;93.20;;;;;;5092763;28;20207;-63
2022/05/29 10:01:34;;;;;;;3.50;1.47;;;19.10;94.00;;;;;;5092903;28;20223;-62
2022/05/29 10:04:03;;;;;;;1.27;1.17;;;19.10;94.10;;;;;;5093080;28;20204;-64
2022/05/29 10:06:33;;;;;;;1.13;1.13;;;19.10;93.90;;;;;;5092597;28;20260;-64
2022/05/29 10:09:20;;;;;;;1.20;1.10;;;19.10;93.90;;;;;;5093129;28;20192;-62
2022/05/29 10:11:49;;;;;;;2.17;1.20;;;19.10;94.10;;;;;;5092767;28;20196;-62
2022/05/29 10:14:37;;;;;;;1.90;1.10;;;19.10;93.30;;;;;;5092752;28;20630;-64
2022/05/29 10:17:12;;;;;;;1.73;1.13;;;19.10;92.80;;;;;;5092681;28;20582;-63
2022/05/29 10:19:41;;;;;;;2.30;1.17;;;19.10;91.90;;;;;;5091752;28;20194;-63
2022/05/29 10:22:14;;;;;;;2.97;1.70;;;19.20;92.30;;;;;;5092820;28;20211;-62
2022/05/29 10:24:43;;;;;;;1.00;1.00;;;19.20;91.30;;;;;;5092641;28;20717;-64
2022/05/29 10:27:22;;;;;;;1.20;1.10;;;19.20;91.30;;;;;;5092721;28;20539;-63
2022/05/29 10:29:54;;;;;;;1.77;1.20;;;19.20;91.70;;;;;;5091937;28;20250;-63
2022/05/29 10:32:25;;;;;;;1.43;1.33;;;19.20;92.10;;;;;;5092020;28;20193;-64
2022/05/29 10:34:54;;;;;;;0.90;0.90;;;19.30;91.30;;;;;;5092372;28;20191;-62
2022/05/29 10:37:40;;;;;;;1.83;1.10;;;19.30;91.40;;;;;;5092037;28;20677;-63
2022/05/29 10:40:21;;;;;;;2.17;1.10;;;19.40;91.00;;;;;;5092036;28;20196;-62
2022/05/29 10:42:50;;;;;;;1.30;1.20;;;19.40;90.80;;;;;;5092162;28;20202;-62
2022/05/29 10:45:20;;;;;;;1.63;1.07;;;19.50;90.40;;;;;;5091986;28;20220;-62
2022/05/29 10:48:11;;;;;;;1.37;1.00;;;19.60;87.70;;;;;;5091646;28;20212;-61
2022/05/29 10:50:50;;;;;;;1.17;1.07;;;19.60;87.00;;;;;;5091589;28;20204;-63
2022/05/29 10:53:26;;;;;;;1.77;1.20;;;19.70;89.60;;;;;;5091766;28;20239;-63
2022/05/29 10:56:02;;;;;;;3.37;1.30;;;19.80;90.30;;;;;;5091868;28;20520;-62
2022/05/29 10:58:46;;;;;;;1.40;1.10;;;20.00;90.40;;;;;;5091827;28;20261;-62
2022/05/29 11:04:36;;;;;;;1.23;1.00;;;20.00;86.90;;;;;;5091647;28;20185;-63
2022/05/29 11:07:26;;;;;;;3.63;1.23;;;20.00;86.70;;;;;;5091916;28;20208;-63
2022/05/29 11:10:08;;;;;;;1.10;1.00;;;20.10;87.90;;;;;;5091816;28;20622;-62
2022/05/29 11:12:47;;;;;;;1.70;1.10;;;20.20;86.00;;;;;;5091591;28;20193;-63
2022/05/29 11:15:25;;;;;;;1.43;1.20;;;20.30;86.30;;;;;;5091680;28;20229;-63
2022/05/29 11:18:09;;;;;;;1.43;1.10;;;20.30;86.60;;;;;;5091692;28;20216;-62
2022/05/29 11:20:55;;;;;;;1.20;1.10;;;20.40;88.10;;;;;;5091333;28;20191;-62
2022/05/29 11:23:41;;;;;;;1.00;0.97;;;20.30;84.70;;;;;;5091706;28;20714;-64
2022/05/29 11:26:18;;;;;;;2.17;1.13;;;20.30;82.80;;;;;;5091678;28;20186;-63
2022/05/29 11:29:10;;;;;;;1.20;1.10;;;20.30;83.40;;;;;;5091468;28;20593;-63
2022/05/29 11:31:53;;;;;;;2.33;1.10;;;20.20;83.90;;;;;;5090643;28;20190;-62
2022/05/29 11:34:30;;;;;;;1.23;1.00;;;20.10;84.20;;;;;;5091194;28;20633;-63
2022/05/29 11:37:23;;;;;;;2.50;1.10;;;20.10;84.00;;;;;;5091803;28;20193;-61
2022/05/29 11:39:56;;;;;;;1.43;1.20;;;20.10;85.70;;;;;;5091741;28;20193;-61
2022/05/29 11:42:27;;;;;;;3.20;1.10;;;20.10;84.90;;;;;;5091429;28;20194;-63
2022/05/29 11:45:01;;;;;;;2.67;1.70;;;20.10;86.30;;;;;;5091525;28;20362;-63
2022/05/29 11:53:18;;;;;;;1.27;1.17;;;20.10;85.30;;;;;;5090977;28;20198;-62
2022/05/29 11:55:48;;;;;;;2.07;1.20;;;20.20;85.60;;;;;;5091478;28;20196;-65
2022/05/29 11:58:20;;;;;;;1.80;1.40;;;20.20;84.80;;;;;;5091223;28;20226;-66
2022/05/29 12:00:53;;;;;;;1.63;1.20;;;20.20;84.60;;;;;;5081413;28;20197;-62
2022/05/29 12:03:31;;;;;;;1.33;1.10;;;20.10;83.30;;;;;;5070347;28;20196;-63
2022/05/29 12:06:05;;;;;;;1.30;1.20;;;20.00;84.60;;;;;;5084133;28;20212;-66
2022/05/29 12:08:41;;;;;;;1.90;1.10;;;20.00;85.40;;;;;;5089986;28;20203;-61
2022/05/29 12:11:17;;;;;;;3.30;1.20;;;20.10;84.50;;;;;;5070755;28;20635;-64
2022/05/29 12:13:55;;;;;;;1.67;1.07;;;20.10;85.60;;;;;;5070411;28;20650;-62
2022/05/29 12:16:28;;;;;;;1.80;1.50;;;20.20;85.00;;;;;;5070670;28;20207;-62
2022/05/29 12:18:57;;;;;;;2.03;1.37;;;20.30;84.60;;;;;;5082356;28;20205;-63
2022/05/29 12:21:31;;;;;;;5.57;1.83;;;20.20;85.50;;;;;;5080324;28;20205;-65
2022/05/29 12:24:00;;;;;;;2.33;1.20;;;20.20;85.30;;;;;;5077950;28;20214;-66
2022/05/29 12:26:35;;;;;;;2.27;1.40;;;20.20;83.40;;;;;;5079101;28;20213;-62
2022/05/29 12:29:06;;;;;;;3.30;1.30;;;20.10;84.00;;;;;;5072757;28;20744;-64
2022/05/29 12:31:39;;;;;;;2.90;2.23;;;20.10;83.50;;;;;;5085387;28;20227;-62
2022/05/29 12:34:08;;;;;;;1.00;1.00;;;20.20;83.60;;;;;;5090371;28;20202;-63
2022/05/29 12:37:05;;;;;;;1.60;0.93;;;20.30;80.90;;;;;;5071711;28;20202;-64
2022/05/29 12:39:48;;;;;;;1.47;1.27;;;20.30;82.30;;;;;;5072529;28;20226;-63
2022/05/29 12:42:37;;;;;;;2.60;1.60;;;20.30;82.30;;;;;;5071264;28;20225;-65
2022/05/29 12:45:24;;;;;;;1.90;1.00;;;20.20;81.70;;;;;;5085074;28;20189;-63
2022/05/29 12:48:21;;;;;;;1.57;1.03;;;20.30;83.90;;;;;;5092538;28;20332;-62
2022/05/29 12:51:08;;;;;;;1.50;1.20;;;20.30;81.20;;;;;;5045819;28;20733;-66
2022/05/29 12:54:19;;;;;;;2.63;1.40;;;20.40;81.30;;;;;;5073984;28;20220;-63
2022/05/29 12:57:14;;;;;;;1.23;1.10;;;20.50;82.90;;;;;;5073960;28;20283;-62
2022/05/29 13:00:17;;;;;;;1.67;1.10;;;20.60;81.70;;;;;;5073907;28;20578;-62
2022/05/29 13:03:04;;;;;;;1.23;1.13;;;20.70;79.60;;;;;;5074553;28;20639;-64
2022/05/29 13:05:47;;;;;;;1.73;1.10;;;20.60;79.40;;;;;;5083576;28;20190;-63
2022/05/29 13:08:41;;;;;;;1.17;1.00;;;20.70;80.10;;;;;;5072976;28;20193;-63
2022/05/29 13:11:09;;;;;;;1.17;1.03;;;20.60;78.90;;;;;;5077884;28;20228;-61
2022/05/29 13:13:39;;;;;;;1.40;1.00;;;20.60;78.50;;;;;;5079284;28;20200;-64
2022/05/29 13:16:22;;;;;;;4.07;1.10;;;20.60;78.70;;;;;;5075083;28;20228;-62
2022/05/29 13:19:14;;;;;;;1.57;1.03;;;20.50;78.90;;;;;;5093973;28;20208;-66
2022/05/29 13:22:01;;;;;;;3.00;1.00;;;20.40;79.60;;;;;;5094037;28;20249;-62
2022/05/29 13:24:31;;;;;;;1.83;1.10;;;20.50;79.90;;;;;;5093569;28;20196;-61
2022/05/29 13:27:30;;;;;;;1.97;1.20;;;20.50;80.00;;;;;;5089055;28;20552;-64
2022/05/29 13:29:59;;;;;;;1.20;1.10;;;20.50;80.90;;;;;;5093333;28;20657;-62
2022/05/29 13:32:28;;;;;;;1.97;1.17;;;20.50;80.80;;;;;;5079397;28;20569;-63
2022/05/29 13:35:44;;;;;;;3.03;1.23;;;20.50;78.70;;;;;;5073422;28;20211;-63
2022/05/29 13:38:51;;;;;;;2.23;1.20;;;20.60;79.40;;;;;;5027290;28;20220;-67
2022/05/29 13:41:26;;;;;;;1.47;1.30;;;20.70;79.30;;;;;;5014070;28;20205;-64
2022/05/29 13:43:53;;;;;;;1.20;1.10;;;20.70;76.80;;;;;;5009038;28;20187;-67
2022/05/29 13:46:23;;;;;;;2.03;1.10;;;20.70;77.60;;;;;;5009393;28;20558;-62
2022/05/29 13:49:20;;;;;;;2.07;1.20;;;20.70;78.50;;;;;;5016559;28;20195;-63